sensor_id;sensor_type;location;lat;lon;timestamp;pressure;altitude;pressure_sealevel;temperature;humidity
54736;BME280;40632;51.442;11.936;2022-07-12T00:00:55;101103.97;;;22.30;70.04
54736;BME280;40632;51.442;11.936;2022-07-12T00:03:20;101102.31;;;21.86;71.85
54736;BME280;40632;51.442;11.936;2022-07-12T00:05:48;101102.69;;;21.91;72.33
54736;BME280;40632;51.442;11.936;2022-07-12T00:08:14;101110.63;;;22.25;70.36
54736;BME280;40632;51.442;11.936;2022-07-12T00:10:39;101112.56;;;22.07;71.71
54736;BME280;40632;51.442;11.936;2022-07-12T00:13:04;101105.06;;;22.02;71.89
54736;BME280;40632;51.442;11.936;2022-07-12T00:15:30;101115.72;;;22.53;69.71
54736;BME280;40632;51.442;11.936;2022-07-12T00:17:55;101111.53;;;22.42;70.07
54736;BME280;40632;51.442;11.936;2022-07-12T00:20:21;101114.91;;;22.69;69.54
54736;BME280;40632;51.442;11.936;2022-07-12T00:22:49;101121.59;;;22.65;68.68
54736;BME280;40632;51.442;11.936;2022-07-12T00:25:14;101119.47;;;23.18;67.15
54736;BME280;40632;51.442;11.936;2022-07-12T00:27:39;101123.44;;;22.89;67.23
54736;BME280;40632;51.442;11.936;2022-07-12T00:30:05;101122.13;;;23.90;64.40
54736;BME280;40632;51.442;11.936;2022-07-12T00:32:31;101115.56;;;22.96;67.37
54736;BME280;40632;51.442;11.936;2022-07-12T00:34:56;101115.94;;;23.90;64.42
54736;BME280;40632;51.442;11.936;2022-07-12T00:37:22;101112.06;;;22.79;66.83
54736;BME280;40632;51.442;11.936;2022-07-12T00:39:49;101117.09;;;22.98;67.41
54736;BME280;40632;51.442;11.936;2022-07-12T00:42:15;101117.75;;;22.76;68.21
54736;BME280;40632;51.442;11.936;2022-07-12T00:44:40;101111.88;;;22.64;69.18
54736;BME280;40632;51.442;11.936;2022-07-12T00:47:05;101112.91;;;22.71;68.65
54736;BME280;40632;51.442;11.936;2022-07-12T00:49:31;101114.31;;;21.82;71.41
54736;BME280;40632;51.442;11.936;2022-07-12T00:51:56;101112.81;;;22.22;71.01
54736;BME280;40632;51.442;11.936;2022-07-12T00:54:22;101112.00;;;21.87;72.72
54736;BME280;40632;51.442;11.936;2022-07-12T00:56:51;101113.69;;;22.31;71.58
54736;BME280;40632;51.442;11.936;2022-07-12T00:59:16;101110.97;;;21.80;73.43
54736;BME280;40632;51.442;11.936;2022-07-12T01:01:42;101113.84;;;22.29;70.90
54736;BME280;40632;51.442;11.936;2022-07-12T01:04:07;101110.53;;;23.42;67.91
54736;BME280;40632;51.442;11.936;2022-07-12T01:06:33;101108.56;;;22.54;69.11
54736;BME280;40632;51.442;11.936;2022-07-12T01:08:58;101107.69;;;22.53;68.85
54736;BME280;40632;51.442;11.936;2022-07-12T01:11:23;101098.63;;;21.79;69.97
54736;BME280;40632;51.442;11.936;2022-07-12T01:13:51;101108.19;;;22.40;70.45
54736;BME280;40632;51.442;11.936;2022-07-12T01:16:17;101106.97;;;21.23;75.17
54736;BME280;40632;51.442;11.936;2022-07-12T01:18:43;101112.25;;;21.41;74.47
54736;BME280;40632;51.442;11.936;2022-07-12T01:21:08;101111.47;;;21.83;71.95
54736;BME280;40632;51.442;11.936;2022-07-12T01:23:37;101100.84;;;22.00;71.73
54736;BME280;40632;51.442;11.936;2022-07-12T01:26:03;101103.91;;;22.13;70.57
54736;BME280;40632;51.442;11.936;2022-07-12T01:28:29;101107.16;;;21.82;72.42
54736;BME280;40632;51.442;11.936;2022-07-12T01:30:54;101116.59;;;22.54;70.46
54736;BME280;40632;51.442;11.936;2022-07-12T01:33:19;101111.97;;;22.21;71.37
54736;BME280;40632;51.442;11.936;2022-07-12T01:35:45;101113.38;;;21.30;73.58
54736;BME280;40632;51.442;11.936;2022-07-12T01:38:11;101116.00;;;21.48;72.88
54736;BME280;40632;51.442;11.936;2022-07-12T01:40:39;101122.69;;;20.82;75.84
54736;BME280;40632;51.442;11.936;2022-07-12T01:43:05;101120.59;;;21.38;74.17
54736;BME280;40632;51.442;11.936;2022-07-12T01:45:30;101124.63;;;21.16;74.89
54736;BME280;40632;51.442;11.936;2022-07-12T01:47:56;101117.69;;;21.05;74.98
54736;BME280;40632;51.442;11.936;2022-07-12T01:50:21;101121.28;;;20.96;75.05
54736;BME280;40632;51.442;11.936;2022-07-12T01:52:47;101121.69;;;21.27;74.73
54736;BME280;40632;51.442;11.936;2022-07-12T01:55:12;101130.72;;;21.08;74.75
54736;BME280;40632;51.442;11.936;2022-07-12T01:57:40;101131.47;;;20.29;78.32
54736;BME280;40632;51.442;11.936;2022-07-12T02:00:06;101124.63;;;21.16;75.48
54736;BME280;40632;51.442;11.936;2022-07-12T02:02:32;101127.25;;;20.26;79.71
54736;BME280;40632;51.442;11.936;2022-07-12T02:04:58;101127.81;;;20.48;79.05
54736;BME280;40632;51.442;11.936;2022-07-12T02:07:23;101128.19;;;20.53;79.33
54736;BME280;40632;51.442;11.936;2022-07-12T02:09:49;101127.88;;;20.66;77.83
54736;BME280;40632;51.442;11.936;2022-07-12T02:12:14;101131.19;;;21.30;74.80
54736;BME280;40632;51.442;11.936;2022-07-12T02:14:42;101132.84;;;20.33;78.98
54736;BME280;40632;51.442;11.936;2022-07-12T02:17:07;101129.06;;;21.07;75.98
54736;BME280;40632;51.442;11.936;2022-07-12T02:19:33;101117.53;;;21.33;74.75
54736;BME280;40632;51.442;11.936;2022-07-12T02:21:58;101121.66;;;20.47;79.42
54736;BME280;40632;51.442;11.936;2022-07-12T02:24:23;101123.91;;;20.70;79.75
54736;BME280;40632;51.442;11.936;2022-07-12T02:26:48;101121.34;;;20.50;78.18
54736;BME280;40632;51.442;11.936;2022-07-12T02:29:14;101119.09;;;20.28;80.04
54736;BME280;40632;51.442;11.936;2022-07-12T02:31:42;101124.94;;;20.41;79.96
54736;BME280;40632;51.442;11.936;2022-07-12T02:34:07;101125.44;;;20.27;79.93
54736;BME280;40632;51.442;11.936;2022-07-12T02:36:32;101123.50;;;20.19;80.09
54736;BME280;40632;51.442;11.936;2022-07-12T02:38:57;101133.75;;;20.69;77.07
54736;BME280;40632;51.442;11.936;2022-07-12T02:41:23;101141.34;;;20.46;77.50
54736;BME280;40632;51.442;11.936;2022-07-12T02:43:48;101137.16;;;20.80;74.66
54736;BME280;40632;51.442;11.936;2022-07-12T02:46:13;101138.84;;;20.63;77.08
54736;BME280;40632;51.442;11.936;2022-07-12T02:48:41;101137.53;;;20.67;76.91
54736;BME280;40632;51.442;11.936;2022-07-12T02:51:07;101143.78;;;20.57;77.22
54736;BME280;40632;51.442;11.936;2022-07-12T02:53:32;101149.97;;;20.94;75.98
54736;BME280;40632;51.442;11.936;2022-07-12T02:55:57;101144.91;;;21.27;74.15
54736;BME280;40632;51.442;11.936;2022-07-12T02:58:23;101142.81;;;21.65;72.42
54736;BME280;40632;51.442;11.936;2022-07-12T03:00:48;101145.66;;;20.75;74.99
54736;BME280;40632;51.442;11.936;2022-07-12T03:03:14;101146.44;;;20.12;78.49
54736;BME280;40632;51.442;11.936;2022-07-12T03:05:42;101147.50;;;20.19;79.29
54736;BME280;40632;51.442;11.936;2022-07-12T03:08:08;101143.13;;;20.73;76.85
54736;BME280;40632;51.442;11.936;2022-07-12T03:10:33;101148.09;;;21.30;73.52
54736;BME280;40632;51.442;11.936;2022-07-12T03:12:59;101160.78;;;21.28;72.80
54736;BME280;40632;51.442;11.936;2022-07-12T03:15:24;101157.06;;;21.03;74.81
54736;BME280;40632;51.442;11.936;2022-07-12T03:17:50;101160.44;;;21.05;73.85
54736;BME280;40632;51.442;11.936;2022-07-12T03:20:15;101160.06;;;20.54;75.99
54736;BME280;40632;51.442;11.936;2022-07-12T03:22:43;101168.00;;;20.46;77.62
54736;BME280;40632;51.442;11.936;2022-07-12T03:25:09;101172.84;;;20.33;78.39
54736;BME280;40632;51.442;11.936;2022-07-12T03:27:34;101169.25;;;21.24;74.75
54736;BME280;40632;51.442;11.936;2022-07-12T03:29:59;101169.88;;;21.00;75.78
54736;BME280;40632;51.442;11.936;2022-07-12T03:32:25;101175.22;;;21.18;75.11
54736;BME280;40632;51.442;11.936;2022-07-12T03:34:50;101178.84;;;21.35;74.26
54736;BME280;40632;51.442;11.936;2022-07-12T03:37:15;101179.09;;;21.23;74.05
54736;BME280;40632;51.442;11.936;2022-07-12T03:39:43;101175.69;;;21.57;72.17
54736;BME280;40632;51.442;11.936;2022-07-12T03:42:09;101180.56;;;21.44;73.25
54736;BME280;40632;51.442;11.936;2022-07-12T03:44:34;101180.66;;;22.21;71.01
54736;BME280;40632;51.442;11.936;2022-07-12T03:47:00;101175.47;;;22.70;67.33
54736;BME280;40632;51.442;11.936;2022-07-12T03:49:25;101176.84;;;22.82;66.77
54736;BME280;40632;51.442;11.936;2022-07-12T03:51:50;101183.69;;;22.26;68.46
54736;BME280;40632;51.442;11.936;2022-07-12T03:54:16;101181.59;;;22.46;67.40
54736;BME280;40632;51.442;11.936;2022-07-12T03:56:44;101174.88;;;23.26;64.62
54736;BME280;40632;51.442;11.936;2022-07-12T03:59:09;101178.31;;;23.59;63.33
54736;BME280;40632;51.442;11.936;2022-07-12T04:01:34;101174.34;;;23.30;63.97
54736;BME280;40632;51.442;11.936;2022-07-12T04:03:59;101190.72;;;22.70;65.25
54736;BME280;40632;51.442;11.936;2022-07-12T04:06:25;101196.94;;;22.27;66.74
54736;BME280;40632;51.442;11.936;2022-07-12T04:08:50;101185.72;;;22.83;65.41
54736;BME280;40632;51.442;11.936;2022-07-12T04:11:15;101188.63;;;23.14;64.10
54736;BME280;40632;51.442;11.936;2022-07-12T04:13:43;101189.22;;;22.75;65.28
54736;BME280;40632;51.442;11.936;2022-07-12T04:16:09;101199.91;;;22.67;66.31
54736;BME280;40632;51.442;11.936;2022-07-12T04:18:34;101192.16;;;22.48;66.73
54736;BME280;40632;51.442;11.936;2022-07-12T04:20:59;101190.09;;;23.09;65.04
54736;BME280;40632;51.442;11.936;2022-07-12T04:23:25;101201.56;;;23.75;61.88
54736;BME280;40632;51.442;11.936;2022-07-12T04:25:50;101206.13;;;23.74;62.21
54736;BME280;40632;51.442;11.936;2022-07-12T04:28:15;101199.22;;;24.36;60.80
54736;BME280;40632;51.442;11.936;2022-07-12T04:30:43;101205.63;;;23.79;61.88
54736;BME280;40632;51.442;11.936;2022-07-12T04:33:09;101204.28;;;23.67;62.79
54736;BME280;40632;51.442;11.936;2022-07-12T04:35:34;101205.97;;;23.51;63.54
54736;BME280;40632;51.442;11.936;2022-07-12T04:37:59;101207.13;;;24.29;60.65
54736;BME280;40632;51.442;11.936;2022-07-12T04:40:24;101201.28;;;25.49;58.49
54736;BME280;40632;51.442;11.936;2022-07-12T04:42:50;101207.34;;;25.05;58.52
54736;BME280;40632;51.442;11.936;2022-07-12T04:45:15;101203.63;;;24.91;58.36
54736;BME280;40632;51.442;11.936;2022-07-12T04:47:43;101202.28;;;25.10;57.60
54736;BME280;40632;51.442;11.936;2022-07-12T04:50:08;101203.03;;;25.27;57.62
54736;BME280;40632;51.442;11.936;2022-07-12T04:52:34;101211.97;;;24.34;59.46
54736;BME280;40632;51.442;11.936;2022-07-12T04:54:59;101205.13;;;25.09;57.20
54736;BME280;40632;51.442;11.936;2022-07-12T04:57:24;101205.72;;;25.42;57.33
54736;BME280;40632;51.442;11.936;2022-07-12T04:59:50;101205.44;;;25.37;57.08
54736;BME280;40632;51.442;11.936;2022-07-12T05:02:15;101213.75;;;25.65;57.05
54736;BME280;40632;51.442;11.936;2022-07-12T05:04:43;101208.47;;;25.34;57.38
54736;BME280;40632;51.442;11.936;2022-07-12T05:07:08;101212.28;;;26.22;55.73
54736;BME280;40632;51.442;11.936;2022-07-12T05:09:34;101213.44;;;25.60;56.17
54736;BME280;40632;51.442;11.936;2022-07-12T05:11:59;101219.16;;;25.19;58.49
54736;BME280;40632;51.442;11.936;2022-07-12T05:14:24;101223.25;;;24.29;59.96
54736;BME280;40632;51.442;11.936;2022-07-12T05:16:50;101234.56;;;24.56;60.54
54736;BME280;40632;51.442;11.936;2022-07-12T05:19:15;101224.06;;;24.30;60.91
54736;BME280;40632;51.442;11.936;2022-07-12T05:21:43;101240.81;;;24.32;60.41
54736;BME280;40632;51.442;11.936;2022-07-12T05:24:08;101248.31;;;24.05;62.43
54736;BME280;40632;51.442;11.936;2022-07-12T05:26:34;101251.06;;;23.39;63.07
54736;BME280;40632;51.442;11.936;2022-07-12T05:28:59;101254.66;;;22.89;65.05
54736;BME280;40632;51.442;11.936;2022-07-12T05:31:25;101262.13;;;23.61;62.98
54736;BME280;40632;51.442;11.936;2022-07-12T05:33:50;101257.09;;;23.66;64.47
54736;BME280;40632;51.442;11.936;2022-07-12T05:36:15;101248.19;;;23.08;64.98
54736;BME280;40632;51.442;11.936;2022-07-12T05:38:43;101254.75;;;23.06;64.73
54736;BME280;40632;51.442;11.936;2022-07-12T05:41:09;101247.91;;;23.36;64.37
54736;BME280;40632;51.442;11.936;2022-07-12T05:43:34;101252.75;;;24.29;61.25
54736;BME280;40632;51.442;11.936;2022-07-12T05:45:59;101258.38;;;23.78;63.37
54736;BME280;40632;51.442;11.936;2022-07-12T05:48:24;101267.06;;;24.22;61.67
54736;BME280;40632;51.442;11.936;2022-07-12T05:50:50;101270.53;;;22.66;65.93
54736;BME280;40632;51.442;11.936;2022-07-12T05:53:15;101274.03;;;22.67;66.40
54736;BME280;40632;51.442;11.936;2022-07-12T05:55:43;101268.81;;;23.08;65.47
54736;BME280;40632;51.442;11.936;2022-07-12T05:58:08;101273.34;;;23.56;64.46
54736;BME280;40632;51.442;11.936;2022-07-12T06:00:34;101280.47;;;22.98;64.85
54736;BME280;40632;51.442;11.936;2022-07-12T06:02:59;101283.72;;;22.59;66.64
54736;BME280;40632;51.442;11.936;2022-07-12T06:05:24;101282.03;;;23.34;64.96
54736;BME280;40632;51.442;11.936;2022-07-12T06:07:49;101276.53;;;23.27;64.63
54736;BME280;40632;51.442;11.936;2022-07-12T06:10:15;101280.38;;;24.54;61.40
54736;BME280;40632;51.442;11.936;2022-07-12T06:12:43;101288.41;;;23.66;62.63
54736;BME280;40632;51.442;11.936;2022-07-12T06:15:09;101285.06;;;23.47;63.78
54736;BME280;40632;51.442;11.936;2022-07-12T06:17:34;101286.75;;;23.81;63.04
54736;BME280;40632;51.442;11.936;2022-07-12T06:19:59;101288.09;;;23.93;62.99
54736;BME280;40632;51.442;11.936;2022-07-12T06:22:25;101280.16;;;24.08;62.10
54736;BME280;40632;51.442;11.936;2022-07-12T06:24:50;101286.06;;;23.79;62.47
54736;BME280;40632;51.442;11.936;2022-07-12T06:27:15;101287.72;;;24.13;62.97
54736;BME280;40632;51.442;11.936;2022-07-12T06:29:43;101281.81;;;24.17;62.05
54736;BME280;40632;51.442;11.936;2022-07-12T06:32:08;101286.34;;;24.25;62.24
54736;BME280;40632;51.442;11.936;2022-07-12T06:34:35;101285.56;;;23.92;62.63
54736;BME280;40632;51.442;11.936;2022-07-12T06:37:01;101271.66;;;24.44;61.48
54736;BME280;40632;51.442;11.936;2022-07-12T06:39:26;101272.78;;;24.50;60.84
54736;BME280;40632;51.442;11.936;2022-07-12T06:41:51;101273.84;;;24.41;61.82
54736;BME280;40632;51.442;11.936;2022-07-12T06:44:17;101283.53;;;24.02;61.74
54736;BME280;40632;51.442;11.936;2022-07-12T06:46:45;101277.63;;;24.15;62.05
54736;BME280;40632;51.442;11.936;2022-07-12T06:49:10;101280.97;;;24.25;60.23
54736;BME280;40632;51.442;11.936;2022-07-12T06:51:35;101283.53;;;24.89;59.00
54736;BME280;40632;51.442;11.936;2022-07-12T06:54:01;101274.81;;;24.48;59.99
54736;BME280;40632;51.442;11.936;2022-07-12T06:56:26;101277.69;;;24.54;60.17
54736;BME280;40632;51.442;11.936;2022-07-12T06:58:51;101277.63;;;24.94;58.21
54736;BME280;40632;51.442;11.936;2022-07-12T07:01:17;101278.97;;;24.67;59.21
54736;BME280;40632;51.442;11.936;2022-07-12T07:03:45;101286.19;;;25.29;57.64
54736;BME280;40632;51.442;11.936;2022-07-12T07:06:10;101282.34;;;24.61;58.79
54736;BME280;40632;51.442;11.936;2022-07-12T07:08:35;101274.91;;;25.48;57.12
54736;BME280;40632;51.442;11.936;2022-07-12T07:11:01;101285.06;;;24.84;57.90
54736;BME280;40632;51.442;11.936;2022-07-12T07:13:26;101280.34;;;24.86;58.60
54736;BME280;40632;51.442;11.936;2022-07-12T07:15:51;101279.41;;;25.02;58.05
54736;BME280;40632;51.442;11.936;2022-07-12T07:18:16;101286.38;;;24.65;57.02
54736;BME280;40632;51.442;11.936;2022-07-12T07:20:44;101281.13;;;24.71;56.42
54736;BME280;40632;51.442;11.936;2022-07-12T07:23:10;101281.47;;;25.23;55.83
54736;BME280;40632;51.442;11.936;2022-07-12T07:25:35;101278.53;;;24.86;56.68
54736;BME280;40632;51.442;11.936;2022-07-12T07:28:01;101274.66;;;26.11;54.19
54736;BME280;40632;51.442;11.936;2022-07-12T07:30:26;101274.16;;;25.40;56.60
54736;BME280;40632;51.442;11.936;2022-07-12T07:32:51;101280.53;;;25.39;55.91
54736;BME280;40632;51.442;11.936;2022-07-12T07:35:17;101278.31;;;25.42;56.10
54736;BME280;40632;51.442;11.936;2022-07-12T07:37:45;101277.41;;;25.50;54.52
54736;BME280;40632;51.442;11.936;2022-07-12T07:40:10;101276.25;;;24.98;55.19
54736;BME280;40632;51.442;11.936;2022-07-12T07:42:35;101277.09;;;25.68;54.38
54736;BME280;40632;51.442;11.936;2022-07-12T07:45:01;101269.00;;;25.53;53.64
54736;BME280;40632;51.442;11.936;2022-07-12T07:47:26;101268.66;;;26.60;50.99
54736;BME280;40632;51.442;11.936;2022-07-12T07:49:54;101271.22;;;25.49;53.11
54736;BME280;40632;51.442;11.936;2022-07-12T07:52:19;101269.94;;;25.75;52.71
54736;BME280;40632;51.442;11.936;2022-07-12T07:54:47;101270.50;;;25.71;52.42
54736;BME280;40632;51.442;11.936;2022-07-12T07:57:12;101273.75;;;26.19;51.74
54736;BME280;40632;51.442;11.936;2022-07-12T07:59:38;101278.47;;;25.64;52.67
54736;BME280;40632;51.442;11.936;2022-07-12T08:02:03;101257.72;;;26.98;50.11
54736;BME280;40632;51.442;11.936;2022-07-12T08:04:29;101258.22;;;26.21;50.69
54736;BME280;40632;51.442;11.936;2022-07-12T08:06:54;101261.81;;;26.43;50.13
54736;BME280;40632;51.442;11.936;2022-07-12T08:09:19;101261.28;;;25.88;51.83
54736;BME280;40632;51.442;11.936;2022-07-12T08:11:47;101256.25;;;26.96;50.59
54736;BME280;40632;51.442;11.936;2022-07-12T08:14:13;101248.69;;;27.06;49.94
54736;BME280;40632;51.442;11.936;2022-07-12T08:16:38;101243.41;;;27.41;49.68
54736;BME280;40632;51.442;11.936;2022-07-12T08:19:03;101246.91;;;27.35;49.18
54736;BME280;40632;51.442;11.936;2022-07-12T08:21:29;101249.44;;;27.22;48.91
54736;BME280;40632;51.442;11.936;2022-07-12T08:23:54;101247.56;;;28.00;46.89
54736;BME280;40632;51.442;11.936;2022-07-12T08:26:20;101257.06;;;26.96;47.95
54736;BME280;40632;51.442;11.936;2022-07-12T08:28:48;101249.34;;;26.93;47.16
54736;BME280;40632;51.442;11.936;2022-07-12T08:31:13;101257.66;;;27.56;44.65
54736;BME280;40632;51.442;11.936;2022-07-12T08:33:38;101255.97;;;27.84;45.00
54736;BME280;40632;51.442;11.936;2022-07-12T08:36:04;101256.75;;;28.06;44.79
54736;BME280;40632;51.442;11.936;2022-07-12T08:38:29;101259.25;;;29.17;43.25
54736;BME280;40632;51.442;11.936;2022-07-12T08:40:55;101259.91;;;28.58;44.32
54736;BME280;40632;51.442;11.936;2022-07-12T08:43:20;101262.25;;;28.67;42.49
54736;BME280;40632;51.442;11.936;2022-07-12T08:45:48;101254.25;;;29.68;41.01
54736;BME280;40632;51.442;11.936;2022-07-12T08:48:13;101247.81;;;29.55;41.24
54736;BME280;40632;51.442;11.936;2022-07-12T08:50:39;101255.19;;;28.25;44.30
54736;BME280;40632;51.442;11.936;2022-07-12T08:53:05;101246.06;;;28.81;43.67
54736;BME280;40632;51.442;11.936;2022-07-12T08:55:34;101244.56;;;28.58;44.44
54736;BME280;40632;51.442;11.936;2022-07-12T08:58:00;101248.06;;;27.54;46.27
54736;BME280;40632;51.442;11.936;2022-07-12T09:00:26;101254.34;;;28.79;42.61
54736;BME280;40632;51.442;11.936;2022-07-12T09:02:55;101254.78;;;28.28;43.05
54736;BME280;40632;51.442;11.936;2022-07-12T09:05:23;101246.34;;;29.46;42.46
54736;BME280;40632;51.442;11.936;2022-07-12T09:07:48;101246.56;;;29.38;42.32
54736;BME280;40632;51.442;11.936;2022-07-12T09:10:14;101237.50;;;30.17;41.97
54736;BME280;40632;51.442;11.936;2022-07-12T09:12:40;101237.16;;;29.67;41.90
54736;BME280;40632;51.442;11.936;2022-07-12T09:15:15;101240.31;;;29.77;42.10
54736;BME280;40632;51.442;11.936;2022-07-12T09:17:41;101234.06;;;29.23;42.01
54736;BME280;40632;51.442;11.936;2022-07-12T09:20:14;101225.53;;;29.53;41.73
54736;BME280;40632;51.442;11.936;2022-07-12T09:22:42;101218.66;;;30.74;40.46
54736;BME280;40632;51.442;11.936;2022-07-12T09:25:15;101219.88;;;29.68;40.79
54736;BME280;40632;51.442;11.936;2022-07-12T09:27:43;101226.34;;;29.07;42.62
54736;BME280;40632;51.442;11.936;2022-07-12T09:30:11;101220.94;;;29.60;41.34
54736;BME280;40632;51.442;11.936;2022-07-12T09:32:40;101213.22;;;29.77;40.44
54736;BME280;40632;51.442;11.936;2022-07-12T09:35:16;101213.22;;;29.04;41.18
54736;BME280;40632;51.442;11.936;2022-07-12T09:37:41;101215.13;;;29.37;40.88
54736;BME280;40632;51.442;11.936;2022-07-12T09:40:07;101222.41;;;29.50;39.89
54736;BME280;40632;51.442;11.936;2022-07-12T09:42:33;101203.69;;;29.41;39.64
54736;BME280;40632;51.442;11.936;2022-07-12T09:44:58;101218.44;;;28.92;41.10
54736;BME280;40632;51.442;11.936;2022-07-12T09:47:25;101215.97;;;29.31;39.31
54736;BME280;40632;51.442;11.936;2022-07-12T09:49:51;101223.66;;;29.54;39.60
54736;BME280;40632;51.442;11.936;2022-07-12T09:52:21;101222.50;;;30.60;37.43
54736;BME280;40632;51.442;11.936;2022-07-12T09:54:46;101226.31;;;30.52;38.42
54736;BME280;40632;51.442;11.936;2022-07-12T09:57:16;101224.44;;;28.81;40.55
54736;BME280;40632;51.442;11.936;2022-07-12T09:59:44;101227.19;;;30.78;38.47
54736;BME280;40632;51.442;11.936;2022-07-12T10:02:10;101221.94;;;29.99;38.46
54736;BME280;40632;51.442;11.936;2022-07-12T10:04:35;101229.41;;;30.04;38.42
54736;BME280;40632;51.442;11.936;2022-07-12T10:07:01;101218.59;;;29.97;37.96
54736;BME280;40632;51.442;11.936;2022-07-12T10:09:29;101227.28;;;30.19;37.81
54736;BME280;40632;51.442;11.936;2022-07-12T10:11:55;101214.88;;;31.14;36.06
54736;BME280;40632;51.442;11.936;2022-07-12T10:14:20;101218.72;;;30.68;36.77
54736;BME280;40632;51.442;11.936;2022-07-12T10:16:46;101218.50;;;32.14;35.79
54736;BME280;40632;51.442;11.936;2022-07-12T10:19:24;101224.50;;;30.26;37.65
54736;BME280;40632;51.442;11.936;2022-07-12T10:21:51;101226.13;;;29.69;38.73
54736;BME280;40632;51.442;11.936;2022-07-12T10:29:51;101228.22;;;29.66;37.49
54736;BME280;40632;51.442;11.936;2022-07-12T10:32:20;101228.78;;;30.60;36.21
54736;BME280;40632;51.442;11.936;2022-07-12T10:34:53;101230.81;;;30.20;36.99
54736;BME280;40632;51.442;11.936;2022-07-12T10:37:21;101221.28;;;30.94;36.43
54736;BME280;40632;51.442;11.936;2022-07-12T10:42:26;101222.56;;;30.01;36.99
54736;BME280;40632;51.442;11.936;2022-07-12T10:44:54;101229.88;;;29.07;37.91
54736;BME280;40632;51.442;11.936;2022-07-12T10:47:34;101230.50;;;28.96;38.72
54736;BME280;40632;51.442;11.936;2022-07-12T10:50:17;101225.09;;;29.63;36.90
54736;BME280;40632;51.442;11.936;2022-07-12T10:52:43;101227.56;;;29.91;36.33
54736;BME280;40632;51.442;11.936;2022-07-12T10:55:18;101225.09;;;30.48;36.49
54736;BME280;40632;51.442;11.936;2022-07-12T10:57:43;101216.00;;;30.68;35.97
54736;BME280;40632;51.442;11.936;2022-07-12T11:00:12;101215.28;;;31.17;35.85
54736;BME280;40632;51.442;11.936;2022-07-12T11:02:38;101220.69;;;31.17;37.00
54736;BME280;40632;51.442;11.936;2022-07-12T11:05:04;101225.88;;;29.90;37.17
54736;BME280;40632;51.442;11.936;2022-07-12T11:07:29;101227.06;;;30.21;36.48
54736;BME280;40632;51.442;11.936;2022-07-12T11:09:55;101213.94;;;30.63;36.25
54736;BME280;40632;51.442;11.936;2022-07-12T11:12:21;101211.44;;;30.62;36.46
54736;BME280;40632;51.442;11.936;2022-07-12T11:14:52;101209.63;;;30.55;36.12
54736;BME280;40632;51.442;11.936;2022-07-12T11:17:24;101210.03;;;30.91;35.56
54736;BME280;40632;51.442;11.936;2022-07-12T11:20:03;101213.66;;;30.33;36.82
54736;BME280;40632;51.442;11.936;2022-07-12T11:22:28;101212.41;;;29.43;37.82
54736;BME280;40632;51.442;11.936;2022-07-12T11:24:54;101215.34;;;29.55;37.61
54736;BME280;40632;51.442;11.936;2022-07-12T11:27:19;101205.97;;;29.38;37.79
54736;BME280;40632;51.442;11.936;2022-07-12T11:29:55;101204.81;;;30.57;36.71
54736;BME280;40632;51.442;11.936;2022-07-12T11:32:32;101193.19;;;29.92;36.71
54736;BME280;40632;51.442;11.936;2022-07-12T11:34:57;101183.56;;;30.86;34.95
54736;BME280;40632;51.442;11.936;2022-07-12T11:37:23;101186.75;;;31.59;34.21
54736;BME280;40632;51.442;11.936;2022-07-12T11:39:48;101184.13;;;30.25;36.31
54736;BME280;40632;51.442;11.936;2022-07-12T11:42:14;101178.66;;;30.70;35.55
54736;BME280;40632;51.442;11.936;2022-07-12T11:44:46;101168.50;;;31.41;35.11
54736;BME280;40632;51.442;11.936;2022-07-12T11:47:11;101171.63;;;32.00;34.07
54736;BME280;40632;51.442;11.936;2022-07-12T11:49:39;101166.69;;;31.34;34.75
54736;BME280;40632;51.442;11.936;2022-07-12T11:52:06;101151.44;;;32.26;33.32
54736;BME280;40632;51.442;11.936;2022-07-12T11:54:32;101168.03;;;31.25;35.40
54736;BME280;40632;51.442;11.936;2022-07-12T11:57:07;101161.44;;;31.95;34.41
54736;BME280;40632;51.442;11.936;2022-07-12T11:59:32;101163.47;;;32.00;34.16
54736;BME280;40632;51.442;11.936;2022-07-12T12:02:05;101158.97;;;30.81;35.14
54736;BME280;40632;51.442;11.936;2022-07-12T12:04:30;101159.25;;;31.85;34.64
54736;BME280;40632;51.442;11.936;2022-07-12T12:06:58;101141.22;;;31.35;34.64
54736;BME280;40632;51.442;11.936;2022-07-12T12:09:23;101152.56;;;30.75;35.16
54736;BME280;40632;51.442;11.936;2022-07-12T12:11:49;101153.59;;;30.74;35.22
54736;BME280;40632;51.442;11.936;2022-07-12T12:14:14;101152.03;;;31.61;33.93
54736;BME280;40632;51.442;11.936;2022-07-12T12:16:39;101156.03;;;31.14;34.07
54736;BME280;40632;51.442;11.936;2022-07-12T12:19:10;101153.00;;;31.23;34.69
54736;BME280;40632;51.442;11.936;2022-07-12T12:21:35;101153.06;;;31.97;33.77
54736;BME280;40632;51.442;11.936;2022-07-12T12:26:46;101149.31;;;31.17;34.29
54736;BME280;40632;51.442;11.936;2022-07-12T12:29:11;101144.03;;;30.40;34.63
54736;BME280;40632;51.442;11.936;2022-07-12T12:31:37;101142.44;;;30.89;34.07
54736;BME280;40632;51.442;11.936;2022-07-12T12:34:06;101134.50;;;30.63;34.17
54736;BME280;40632;51.442;11.936;2022-07-12T12:36:36;101136.00;;;30.58;34.50
54736;BME280;40632;51.442;11.936;2022-07-12T12:39:01;101135.25;;;31.27;33.96
54736;BME280;40632;51.442;11.936;2022-07-12T12:41:27;101137.84;;;31.15;33.66
54736;BME280;40632;51.442;11.936;2022-07-12T12:44:02;101132.06;;;31.30;34.05
54736;BME280;40632;51.442;11.936;2022-07-12T12:49:08;101121.09;;;31.25;33.89